sensor_id;sensor_type;location;lat;lon;timestamp;pressure;altitude;pressure_sealevel;temperature;humidity
40315;BME280;26021;45.640;11.302;2023-02-02T00:01:52;99092.63;;;0.31;100.00
40315;BME280;26021;45.640;11.302;2023-02-02T00:04:20;99089.16;;;0.05;100.00
40315;BME280;26021;45.640;11.302;2023-02-02T00:06:47;99083.88;;;-0.08;100.00
40315;BME280;26021;45.640;11.302;2023-02-02T00:09:14;99035.59;;;-0.32;100.00
40315;BME280;26021;45.640;11.302;2023-02-02T00:11:40;99071.06;;;0.01;100.00
40315;BME280;26021;45.640;11.302;2023-02-02T00:14:06;99102.63;;;0.26;100.00
40315;BME280;26021;45.640;11.302;2023-02-02T00:16:45;99103.56;;;0.12;100.00
40315;BME280;26021;45.640;11.302;2023-02-02T00:19:14;99092.09;;;0.13;100.00
40315;BME280;26021;45.640;11.302;2023-02-02T00:21:41;99090.09;;;0.17;100.00
40315;BME280;26021;45.640;11.302;2023-02-02T00:24:08;99103.56;;;0.12;100.00
40315;BME280;26021;45.640;11.302;2023-02-02T00:26:35;99101.47;;;0.17;100.00
40315;BME280;26021;45.640;11.302;2023-02-02T00:29:01;99102.63;;;0.13;100.00
40315;BME280;26021;45.640;11.302;2023-02-02T00:31:26;99108.00;;;0.12;100.00
40315;BME280;26021;45.640;11.302;2023-02-02T00:33:52;99103.53;;;-0.13;100.00
40315;BME280;26021;45.640;11.302;2023-02-02T00:36:18;99108.56;;;-0.10;100.00
40315;BME280;26021;45.640;11.302;2023-02-02T00:38:45;99112.88;;;-0.22;100.00
40315;BME280;26021;45.640;11.302;2023-02-02T00:41:10;99107.50;;;-0.20;100.00
40315;BME280;26021;45.640;11.302;2023-02-02T00:43:36;99110.41;;;0.02;100.00
40315;BME280;26021;45.640;11.302;2023-02-02T00:46:01;99107.00;;;-0.13;100.00
40315;BME280;26021;45.640;11.302;2023-02-02T00:48:27;99125.59;;;-0.16;100.00
40315;BME280;26021;45.640;11.302;2023-02-02T00:50:52;99129.97;;;0.11;100.00
40315;BME280;26021;45.640;11.302;2023-02-02T00:53:18;99133.34;;;0.13;100.00
40315;BME280;26021;45.640;11.302;2023-02-02T00:55:43;99138.50;;;0.14;100.00
40315;BME280;26021;45.640;11.302;2023-02-02T00:58:09;99136.66;;;-0.11;100.00
40315;BME280;26021;45.640;11.302;2023-02-02T01:00:34;99126.00;;;-0.22;100.00
40315;BME280;26021;45.640;11.302;2023-02-02T01:03:01;99132.59;;;0.11;100.00
40315;BME280;26021;45.640;11.302;2023-02-02T01:05:33;99105.94;;;-0.23;100.00
40315;BME280;26021;45.640;11.302;2023-02-02T01:07:58;99139.72;;;-0.04;100.00
40315;BME280;26021;45.640;11.302;2023-02-02T01:10:24;99098.38;;;-0.15;100.00
40315;BME280;26021;45.640;11.302;2023-02-02T01:12:49;99140.53;;;-0.16;100.00
40315;BME280;26021;45.640;11.302;2023-02-02T01:15:15;99134.66;;;-0.07;100.00
40315;BME280;26021;45.640;11.302;2023-02-02T01:17:41;99141.81;;;-0.09;100.00
40315;BME280;26021;45.640;11.302;2023-02-02T01:20:07;99140.84;;;-0.08;100.00
40315;BME280;26021;45.640;11.302;2023-02-02T01:22:33;99143.53;;;0.05;100.00
40315;BME280;26021;45.640;11.302;2023-02-02T01:24:59;99150.34;;;-0.06;100.00
40315;BME280;26021;45.640;11.302;2023-02-02T01:27:25;99134.63;;;-0.20;100.00
40315;BME280;26021;45.640;11.302;2023-02-02T01:29:50;99140.31;;;-0.26;100.00
40315;BME280;26021;45.640;11.302;2023-02-02T01:32:16;99111.50;;;-0.27;100.00
40315;BME280;26021;45.640;11.302;2023-02-02T01:34:41;99150.84;;;-0.13;100.00
40315;BME280;26021;45.640;11.302;2023-02-02T01:37:08;99139.13;;;0.05;100.00
40315;BME280;26021;45.640;11.302;2023-02-02T01:39:34;99148.44;;;-0.04;100.00
40315;BME280;26021;45.640;11.302;2023-02-02T01:41:59;99141.06;;;-0.11;100.00
40315;BME280;26021;45.640;11.302;2023-02-02T01:47:25;99137.28;;;-0.20;100.00
40315;BME280;26021;45.640;11.302;2023-02-02T01:49:53;99127.06;;;-0.24;100.00
40315;BME280;26021;45.640;11.302;2023-02-02T01:52:21;99109.16;;;-0.45;100.00
40315;BME280;26021;45.640;11.302;2023-02-02T01:54:55;99125.41;;;-0.13;100.00
40315;BME280;26021;45.640;11.302;2023-02-02T01:57:37;99132.72;;;-0.30;100.00
40315;BME280;26021;45.640;11.302;2023-02-02T02:00:08;99132.38;;;-0.39;100.00
40315;BME280;26021;45.640;11.302;2023-02-02T02:02:35;99124.31;;;-0.36;100.00
40315;BME280;26021;45.640;11.302;2023-02-02T02:05:02;99131.47;;;-0.25;100.00
40315;BME280;26021;45.640;11.302;2023-02-02T02:07:29;99121.19;;;-0.15;100.00
40315;BME280;26021;45.640;11.302;2023-02-02T02:09:54;99114.97;;;-0.27;100.00
40315;BME280;26021;45.640;11.302;2023-02-02T02:12:20;99135.22;;;-0.42;100.00
40315;BME280;26021;45.640;11.302;2023-02-02T02:14:47;99127.78;;;-0.35;100.00
40315;BME280;26021;45.640;11.302;2023-02-02T02:20:38;99127.16;;;-0.26;100.00
40315;BME280;26021;45.640;11.302;2023-02-02T02:34:51;99113.31;;;-0.15;100.00
40315;BME280;26021;45.640;11.302;2023-02-02T02:40:19;99075.53;;;-0.27;100.00
40315;BME280;26021;45.640;11.302;2023-02-02T02:42:59;99059.94;;;-0.55;100.00
40315;BME280;26021;45.640;11.302;2023-02-02T02:45:28;99119.28;;;-0.26;100.00
40315;BME280;26021;45.640;11.302;2023-02-02T02:47:54;99064.28;;;-0.42;100.00
40315;BME280;26021;45.640;11.302;2023-02-02T02:50:21;99106.03;;;-0.24;100.00
40315;BME280;26021;45.640;11.302;2023-02-02T02:52:48;99112.47;;;-0.16;100.00
40315;BME280;26021;45.640;11.302;2023-02-02T02:55:17;99102.03;;;-0.17;100.00
40315;BME280;26021;45.640;11.302;2023-02-02T02:58:03;99093.72;;;-0.24;100.00
40315;BME280;26021;45.640;11.302;2023-02-02T03:00:47;99100.66;;;-0.23;100.00
40315;BME280;26021;45.640;11.302;2023-02-02T03:08:33;99090.88;;;-0.34;100.00
40315;BME280;26021;45.640;11.302;2023-02-02T03:11:00;99103.91;;;-0.32;100.00
40315;BME280;26021;45.640;11.302;2023-02-02T03:13:29;99085.53;;;-0.32;100.00
40315;BME280;26021;45.640;11.302;2023-02-02T03:15:55;99076.75;;;-0.58;100.00
40315;BME280;26021;45.640;11.302;2023-02-02T03:18:22;99059.75;;;-0.52;100.00
40315;BME280;26021;45.640;11.302;2023-02-02T03:20:48;99087.00;;;-0.15;100.00
40315;BME280;26021;45.640;11.302;2023-02-02T03:23:14;99080.06;;;-0.29;100.00
40315;BME280;26021;45.640;11.302;2023-02-02T03:25:39;99057.94;;;-0.52;100.00
40315;BME280;26021;45.640;11.302;2023-02-02T03:28:06;99076.16;;;-0.36;100.00
40315;BME280;26021;45.640;11.302;2023-02-02T03:30:32;99100.53;;;-0.47;100.00
40315;BME280;26021;45.640;11.302;2023-02-02T03:32:58;99089.38;;;-0.50;100.00
40315;BME280;26021;45.640;11.302;2023-02-02T03:35:24;99084.34;;;-0.41;100.00
40315;BME280;26021;45.640;11.302;2023-02-02T03:37:50;99085.59;;;-0.46;100.00
40315;BME280;26021;45.640;11.302;2023-02-02T03:40:16;99081.84;;;-0.29;100.00
40315;BME280;26021;45.640;11.302;2023-02-02T03:42:41;99097.09;;;-0.35;100.00
40315;BME280;26021;45.640;11.302;2023-02-02T03:45:07;99087.50;;;-0.36;100.00
40315;BME280;26021;45.640;11.302;2023-02-02T03:47:32;99083.72;;;-0.44;100.00
40315;BME280;26021;45.640;11.302;2023-02-02T03:49:58;99077.28;;;-0.53;100.00
40315;BME280;26021;45.640;11.302;2023-02-02T03:52:24;99080.56;;;-0.37;100.00
40315;BME280;26021;45.640;11.302;2023-02-02T03:54:50;99100.34;;;-0.71;100.00
40315;BME280;26021;45.640;11.302;2023-02-02T03:57:15;99077.94;;;-0.76;100.00
40315;BME280;26021;45.640;11.302;2023-02-02T03:59:40;99070.34;;;-0.54;100.00
40315;BME280;26021;45.640;11.302;2023-02-02T04:02:06;99060.13;;;-0.71;100.00
40315;BME280;26021;45.640;11.302;2023-02-02T04:04:31;99087.69;;;-0.51;100.00
40315;BME280;26021;45.640;11.302;2023-02-02T04:06:57;99078.59;;;-0.73;100.00
40315;BME280;26021;45.640;11.302;2023-02-02T04:09:23;99049.00;;;-0.62;100.00
40315;BME280;26021;45.640;11.302;2023-02-02T04:11:48;99090.97;;;-0.48;100.00
40315;BME280;26021;45.640;11.302;2023-02-02T04:14:14;99089.53;;;-0.26;100.00
40315;BME280;26021;45.640;11.302;2023-02-02T04:16:39;99101.81;;;-0.40;100.00
40315;BME280;26021;45.640;11.302;2023-02-02T04:19:05;99095.56;;;-0.51;100.00
40315;BME280;26021;45.640;11.302;2023-02-02T04:21:30;99104.38;;;-0.13;100.00
40315;BME280;26021;45.640;11.302;2023-02-02T04:23:56;99109.28;;;-0.21;100.00
40315;BME280;26021;45.640;11.302;2023-02-02T04:26:22;99098.56;;;-0.30;100.00
40315;BME280;26021;45.640;11.302;2023-02-02T04:28:50;99092.03;;;-0.38;100.00
40315;BME280;26021;45.640;11.302;2023-02-02T04:31:15;99098.81;;;-0.60;100.00
40315;BME280;26021;45.640;11.302;2023-02-02T04:33:41;99096.53;;;-0.40;100.00
40315;BME280;26021;45.640;11.302;2023-02-02T04:36:06;98933.09;;;-1.22;100.00
40315;BME280;26021;45.640;11.302;2023-02-02T04:38:32;99106.13;;;-0.26;100.00
40315;BME280;26021;45.640;11.302;2023-02-02T04:40:57;99075.19;;;-0.75;100.00
40315;BME280;26021;45.640;11.302;2023-02-02T04:43:22;99108.47;;;-0.61;100.00
40315;BME280;26021;45.640;11.302;2023-02-02T04:45:53;99106.19;;;-0.53;100.00
40315;BME280;26021;45.640;11.302;2023-02-02T04:48:19;99104.53;;;-0.41;100.00
40315;BME280;26021;45.640;11.302;2023-02-02T04:50:44;99095.94;;;-0.70;100.00
40315;BME280;26021;45.640;11.302;2023-02-02T04:53:10;99108.97;;;-0.69;100.00
40315;BME280;26021;45.640;11.302;2023-02-02T04:55:36;99086.66;;;-0.76;100.00
40315;BME280;26021;45.640;11.302;2023-02-02T04:58:02;99108.06;;;-0.55;100.00
40315;BME280;26021;45.640;11.302;2023-02-02T05:00:27;99101.50;;;-0.35;100.00
40315;BME280;26021;45.640;11.302;2023-02-02T05:02:53;99091.22;;;-0.65;100.00
40315;BME280;26021;45.640;11.302;2023-02-02T05:05:18;99104.59;;;-0.55;100.00
40315;BME280;26021;45.640;11.302;2023-02-02T05:07:44;99051.00;;;-0.66;100.00
40315;BME280;26021;45.640;11.302;2023-02-02T05:10:10;99087.03;;;-0.68;100.00
40315;BME280;26021;45.640;11.302;2023-02-02T05:12:36;99096.22;;;-0.75;100.00
40315;BME280;26021;45.640;11.302;2023-02-02T05:15:01;99096.78;;;-0.70;100.00
40315;BME280;26021;45.640;11.302;2023-02-02T05:17:29;99053.88;;;-1.10;100.00
40315;BME280;26021;45.640;11.302;2023-02-02T05:19:54;99088.84;;;-0.55;100.00
40315;BME280;26021;45.640;11.302;2023-02-02T05:22:20;99095.50;;;-0.37;100.00
40315;BME280;26021;45.640;11.302;2023-02-02T05:24:45;99094.34;;;-0.33;100.00
40315;BME280;26021;45.640;11.302;2023-02-02T05:27:11;99073.06;;;-0.55;100.00
40315;BME280;26021;45.640;11.302;2023-02-02T05:29:36;99089.00;;;-0.71;100.00
40315;BME280;26021;45.640;11.302;2023-02-02T05:32:02;99106.66;;;-0.73;100.00
40315;BME280;26021;45.640;11.302;2023-02-02T05:34:27;99104.44;;;-0.40;100.00
40315;BME280;26021;45.640;11.302;2023-02-02T05:36:53;99099.47;;;-0.44;100.00
40315;BME280;26021;45.640;11.302;2023-02-02T05:39:18;99075.03;;;-0.72;100.00
40315;BME280;26021;45.640;11.302;2023-02-02T05:41:44;99062.66;;;-0.84;100.00
40315;BME280;26021;45.640;11.302;2023-02-02T05:44:13;99106.13;;;-0.39;100.00
40315;BME280;26021;45.640;11.302;2023-02-02T05:46:38;99108.31;;;-0.45;100.00
40315;BME280;26021;45.640;11.302;2023-02-02T05:49:04;99111.78;;;-0.45;100.00
40315;BME280;26021;45.640;11.302;2023-02-02T05:51:33;99107.69;;;-0.36;100.00
40315;BME280;26021;45.640;11.302;2023-02-02T05:54:03;99058.13;;;-0.68;100.00
40315;BME280;26021;45.640;11.302;2023-02-02T05:56:28;99107.31;;;-0.57;100.00
40315;BME280;26021;45.640;11.302;2023-02-02T05:58:53;99092.75;;;-0.48;100.00
40315;BME280;26021;45.640;11.302;2023-02-02T06:01:19;99095.41;;;-0.23;100.00
40315;BME280;26021;45.640;11.302;2023-02-02T06:03:45;99107.28;;;-0.30;100.00
40315;BME280;26021;45.640;11.302;2023-02-02T06:06:11;99102.53;;;-0.38;100.00
40315;BME280;26021;45.640;11.302;2023-02-02T06:08:36;99042.94;;;-0.77;100.00
40315;BME280;26021;45.640;11.302;2023-02-02T06:11:12;99105.06;;;-0.36;100.00
40315;BME280;26021;45.640;11.302;2023-02-02T06:13:37;99069.22;;;-0.24;100.00
40315;BME280;26021;45.640;11.302;2023-02-02T06:16:03;99080.28;;;-0.19;100.00
40315;BME280;26021;45.640;11.302;2023-02-02T06:18:29;99094.19;;;0.08;100.00
40315;BME280;26021;45.640;11.302;2023-02-02T06:20:58;99073.44;;;-0.09;100.00
40315;BME280;26021;45.640;11.302;2023-02-02T06:23:24;99100.78;;;-0.12;100.00
40315;BME280;26021;45.640;11.302;2023-02-02T06:25:50;99109.00;;;-0.04;100.00
40315;BME280;26021;45.640;11.302;2023-02-02T06:28:15;99039.75;;;-0.68;100.00
40315;BME280;26021;45.640;11.302;2023-02-02T06:30:41;99120.00;;;-0.24;100.00
40315;BME280;26021;45.640;11.302;2023-02-02T06:33:06;99115.59;;;-0.23;100.00
40315;BME280;26021;45.640;11.302;2023-02-02T06:35:32;99123.50;;;-0.11;100.00
40315;BME280;26021;45.640;11.302;2023-02-02T06:37:58;99110.69;;;-0.03;100.00
40315;BME280;26021;45.640;11.302;2023-02-02T06:40:24;99116.47;;;-0.10;100.00
40315;BME280;26021;45.640;11.302;2023-02-02T06:42:57;99124.09;;;0.07;100.00
40315;BME280;26021;45.640;11.302;2023-02-02T06:45:23;99122.50;;;0.17;100.00
40315;BME280;26021;45.640;11.302;2023-02-02T06:47:49;99116.81;;;0.11;100.00
40315;BME280;26021;45.640;11.302;2023-02-02T06:50:14;99120.81;;;0.16;100.00
40315;BME280;26021;45.640;11.302;2023-02-02T06:52:46;99112.72;;;0.19;100.00
40315;BME280;26021;45.640;11.302;2023-02-02T06:58:34;99109.34;;;0.17;100.00
40315;BME280;26021;45.640;11.302;2023-02-02T07:01:04;99119.34;;;0.25;100.00
40315;BME280;26021;45.640;11.302;2023-02-02T07:04:03;99121.13;;;0.37;100.00
40315;BME280;26021;45.640;11.302;2023-02-02T07:06:28;99121.75;;;0.28;100.00
40315;BME280;26021;45.640;11.302;2023-02-02T07:08:54;99116.50;;;0.15;100.00
40315;BME280;26021;45.640;11.302;2023-02-02T07:11:20;99125.34;;;0.40;100.00
40315;BME280;26021;45.640;11.302;2023-02-02T07:13:48;99120.28;;;0.49;100.00
40315;BME280;26021;45.640;11.302;2023-02-02T07:16:15;99115.75;;;0.39;100.00
40315;BME280;26021;45.640;11.302;2023-02-02T07:18:41;99103.78;;;0.35;100.00
40315;BME280;26021;45.640;11.302;2023-02-02T07:21:07;99106.78;;;0.54;100.00
40315;BME280;26021;45.640;11.302;2023-02-02T07:23:33;99097.44;;;0.50;100.00
40315;BME280;26021;45.640;11.302;2023-02-02T07:26:03;99135.00;;;1.14;100.00
40315;BME280;26021;45.640;11.302;2023-02-02T07:28:29;99104.97;;;1.16;95.96
40315;BME280;26021;45.640;11.302;2023-02-02T07:30:55;99137.03;;;1.34;99.93
40315;BME280;26021;45.640;11.302;2023-02-02T07:33:20;99136.47;;;1.42;100.00
40315;BME280;26021;45.640;11.302;2023-02-02T07:35:45;99046.16;;;0.92;100.00
40315;BME280;26021;45.640;11.302;2023-02-02T07:38:11;99135.91;;;1.25;100.00
40315;BME280;26021;45.640;11.302;2023-02-02T07:40:36;99111.19;;;1.39;100.00
40315;BME280;26021;45.640;11.302;2023-02-02T07:43:01;99129.88;;;1.60;100.00
40315;BME280;26021;45.640;11.302;2023-02-02T07:45:28;99140.41;;;1.84;100.00
40315;BME280;26021;45.640;11.302;2023-02-02T07:47:57;99143.31;;;2.03;100.00
40315;BME280;26021;45.640;11.302;2023-02-02T07:50:23;99106.66;;;2.11;99.26
40315;BME280;26021;45.640;11.302;2023-02-02T07:52:50;99148.94;;;2.45;99.05
40315;BME280;26021;45.640;11.302;2023-02-02T07:55:15;99112.59;;;2.48;97.79
40315;BME280;26021;45.640;11.302;2023-02-02T07:57:41;99152.31;;;2.80;95.17
40315;BME280;26021;45.640;11.302;2023-02-02T08:00:06;99151.47;;;3.13;91.64
40315;BME280;26021;45.640;11.302;2023-02-02T08:02:32;99150.38;;;3.27;92.65
40315;BME280;26021;45.640;11.302;2023-02-02T08:04:57;99146.19;;;3.57;91.60
40315;BME280;26021;45.640;11.302;2023-02-02T08:07:23;99145.00;;;3.93;88.72
40315;BME280;26021;45.640;11.302;2023-02-02T08:09:49;99149.25;;;4.26;84.99
40315;BME280;26021;45.640;11.302;2023-02-02T08:12:15;99153.25;;;4.41;84.26
40315;BME280;26021;45.640;11.302;2023-02-02T08:14:41;99128.41;;;4.53;83.95
40315;BME280;26021;45.640;11.302;2023-02-02T08:17:06;99130.03;;;4.24;86.12
40315;BME280;26021;45.640;11.302;2023-02-02T08:19:32;99151.66;;;4.50;85.90
40315;BME280;26021;45.640;11.302;2023-02-02T08:21:57;99113.34;;;4.33;84.85
40315;BME280;26021;45.640;11.302;2023-02-02T08:24:22;99121.66;;;4.70;85.77
40315;BME280;26021;45.640;11.302;2023-02-02T08:26:48;99139.34;;;5.00;84.08
40315;BME280;26021;45.640;11.302;2023-02-02T08:29:13;99105.72;;;5.00;82.22
40315;BME280;26021;45.640;11.302;2023-02-02T08:31:42;99140.28;;;5.39;81.27
40315;BME280;26021;45.640;11.302;2023-02-02T08:34:09;99123.00;;;5.54;79.19
40315;BME280;26021;45.640;11.302;2023-02-02T08:36:35;99130.13;;;5.54;74.65
40315;BME280;26021;45.640;11.302;2023-02-02T08:39:06;99120.06;;;5.67;82.54
40315;BME280;26021;45.640;11.302;2023-02-02T08:41:32;99103.88;;;5.60;82.80
40315;BME280;26021;45.640;11.302;2023-02-02T08:43:58;99136.75;;;6.08;75.43
40315;BME280;26021;45.640;11.302;2023-02-02T08:46:24;99130.31;;;6.20;76.41
40315;BME280;26021;45.640;11.302;2023-02-02T08:48:50;99097.91;;;6.07;73.86
40315;BME280;26021;45.640;11.302;2023-02-02T08:51:18;99126.75;;;6.48;74.26
40315;BME280;26021;45.640;11.302;2023-02-02T08:53:44;99121.84;;;6.53;78.74
40315;BME280;26021;45.640;11.302;2023-02-02T08:58:37;99129.38;;;6.58;78.04
40315;BME280;26021;45.640;11.302;2023-02-02T09:01:04;99127.41;;;6.60;76.45
40315;BME280;26021;45.640;11.302;2023-02-02T09:03:31;99033.31;;;6.16;75.83
40315;BME280;26021;45.640;11.302;2023-02-02T09:05:56;99131.16;;;6.77;70.52
40315;BME280;26021;45.640;11.302;2023-02-02T09:08:21;99131.50;;;6.91;68.95
40315;BME280;26021;45.640;11.302;2023-02-02T09:10:47;99134.59;;;6.87;68.72
40315;BME280;26021;45.640;11.302;2023-02-02T09:13:12;99130.78;;;6.99;66.69
40315;BME280;26021;45.640;11.302;2023-02-02T09:15:37;99106.28;;;6.95;65.79
40315;BME280;26021;45.640;11.302;2023-02-02T09:18:03;99106.59;;;6.92;68.73
40315;BME280;26021;45.640;11.302;2023-02-02T09:20:28;99144.03;;;7.09;70.61
40315;BME280;26021;45.640;11.302;2023-02-02T09:22:55;99062.00;;;6.49;70.10
40315;BME280;26021;45.640;11.302;2023-02-02T09:25:21;99062.13;;;6.48;71.07
40315;BME280;26021;45.640;11.302;2023-02-02T09:27:47;99150.38;;;7.25;71.40
40315;BME280;26021;45.640;11.302;2023-02-02T09:30:12;99149.03;;;7.39;70.79
40315;BME280;26021;45.640;11.302;2023-02-02T09:32:38;99155.03;;;7.41;69.82
40315;BME280;26021;45.640;11.302;2023-02-02T09:35:03;99138.44;;;7.29;70.56
40315;BME280;26021;45.640;11.302;2023-02-02T09:37:32;99162.16;;;7.50;67.99
40315;BME280;26021;45.640;11.302;2023-02-02T09:39:58;99149.63;;;7.33;68.21
40315;BME280;26021;45.640;11.302;2023-02-02T09:42:57;99156.31;;;7.37;62.91
40315;BME280;26021;45.640;11.302;2023-02-02T09:45:50;99113.63;;;7.11;63.09
40315;BME280;26021;45.640;11.302;2023-02-02T09:48:25;99158.28;;;7.62;62.19
40315;BME280;26021;45.640;11.302;2023-02-02T09:50:56;99161.72;;;7.73;60.69
40315;BME280;26021;45.640;11.302;2023-02-02T09:53:31;99165.16;;;7.83;60.68
40315;BME280;26021;45.640;11.302;2023-02-02T09:56:04;99170.31;;;8.02;59.83
40315;BME280;26021;45.640;11.302;2023-02-02T09:58:33;99119.66;;;7.94;60.94
40315;BME280;26021;45.640;11.302;2023-02-02T10:08:47;99163.66;;;8.34;60.77
40315;BME280;26021;45.640;11.302;2023-02-02T10:20:01;99180.53;;;8.42;60.10
40315;BME280;26021;45.640;11.302;2023-02-02T10:22:28;99159.59;;;8.29;61.23
40315;BME280;26021;45.640;11.302;2023-02-02T10:24:57;99155.34;;;8.37;63.18
40315;BME280;26021;45.640;11.302;2023-02-02T10:27:36;99151.59;;;8.29;64.02
40315;BME280;26021;45.640;11.302;2023-02-02T10:30:13;99159.22;;;8.24;66.12
40315;BME280;26021;45.640;11.302;2023-02-02T10:32:47;99163.56;;;8.25;67.92
40315;BME280;26021;45.640;11.302;2023-02-02T10:38:17;99157.50;;;8.33;70.29
40315;BME280;26021;45.640;11.302;2023-02-02T10:46:36;99127.72;;;8.38;67.88
40315;BME280;26021;45.640;11.302;2023-02-02T10:51:58;99099.06;;;8.40;64.78
40315;BME280;26021;45.640;11.302;2023-02-02T10:57:15;99134.59;;;8.74;66.98
40315;BME280;26021;45.640;11.302;2023-02-02T11:00:03;99134.22;;;8.69;66.48
40315;BME280;26021;45.640;11.302;2023-02-02T11:02:30;99133.25;;;8.70;66.10
40315;BME280;26021;45.640;11.302;2023-02-02T11:04:56;99129.22;;;8.92;63.96
40315;BME280;26021;45.640;11.302;2023-02-02T11:07:54;99129.28;;;9.08;61.94
40315;BME280;26021;45.640;11.302;2023-02-02T11:10:19;99101.66;;;8.91;61.44
40315;BME280;26021;45.640;11.302;2023-02-02T11:12:46;99133.19;;;9.22;62.54
40315;BME280;26021;45.640;11.302;2023-02-02T11:15:28;99129.56;;;9.39;62.99
40315;BME280;26021;45.640;11.302;2023-02-02T11:17:54;99093.16;;;9.30;64.62
40315;BME280;26021;45.640;11.302;2023-02-02T11:20:40;99113.75;;;9.54;64.49
40315;BME280;26021;45.640;11.302;2023-02-02T11:23:05;99117.09;;;9.64;64.78
40315;BME280;26021;45.640;11.302;2023-02-02T11:25:35;99109.09;;;9.64;66.59
40315;BME280;26021;45.640;11.302;2023-02-02T11:28:16;99103.97;;;9.79;68.47
40315;BME280;26021;45.640;11.302;2023-02-02T11:30:49;99100.97;;;9.90;69.34
40315;BME280;26021;45.640;11.302;2023-02-02T11:33:20;99105.81;;;9.86;70.77
40315;BME280;26021;45.640;11.302;2023-02-02T11:38:23;99076.75;;;9.83;73.48
40315;BME280;26021;45.640;11.302;2023-02-02T11:46:05;99079.59;;;10.31;71.24
40315;BME280;26021;45.640;11.302;2023-02-02T11:48:35;99074.41;;;10.21;71.02
40315;BME280;26021;45.640;11.302;2023-02-02T11:51:02;99063.56;;;10.23;72.79
40315;BME280;26021;45.640;11.302;2023-02-02T11:53:46;99062.88;;;10.45;73.08
40315;BME280;26021;45.640;11.302;2023-02-02T11:56:20;99060.88;;;10.47;72.47
40315;BME280;26021;45.640;11.302;2023-02-02T12:01:33;99048.97;;;10.58;74.61
40315;BME280;26021;45.640;11.302;2023-02-02T12:06:45;99015.94;;;10.26;77.35
40315;BME280;26021;45.640;11.302;2023-02-02T12:09:11;99046.28;;;10.58;79.22
40315;BME280;26021;45.640;11.302;2023-02-02T12:12:06;99043.16;;;10.46;80.11
40315;BME280;26021;45.640;11.302;2023-02-02T12:17:37;99035.50;;;10.27;81.22
40315;BME280;26021;45.640;11.302;2023-02-02T12:33:38;99031.28;;;10.32;78.01
40315;BME280;26021;45.640;11.302;2023-02-02T12:40:02;99027.47;;;10.43;76.89
40315;BME280;26021;45.640;11.302;2023-02-02T12:42:43;99021.91;;;10.53;76.03
40315;BME280;26021;45.640;11.302;2023-02-02T12:48:33;99021.19;;;10.67;75.82
40315;BME280;26021;45.640;11.302;2023-02-02T12:54:12;99020.09;;;10.84;78.44
40315;BME280;26021;45.640;11.302;2023-02-02T12:57:18;99020.63;;;10.79;77.48
40315;BME280;26021;45.640;11.302;2023-02-02T13:00:06;99024.69;;;10.67;79.18
40315;BME280;26021;45.640;11.302;2023-02-02T13:03:00;99023.47;;;10.78;80.10
40315;BME280;26021;45.640;11.302;2023-02-02T13:08:25;99023.34;;;10.71;79.47
40315;BME280;26021;45.640;11.302;2023-02-02T13:11:02;99021.34;;;10.65;79.86
40315;BME280;26021;45.640;11.302;2023-02-02T13:13:32;99021.00;;;10.68;82.24
40315;BME280;26021;45.640;11.302;2023-02-02T13:16:07;99019.53;;;10.66;80.67
40315;BME280;26021;45.640;11.302;2023-02-02T13:18:38;99016.84;;;10.66;80.72
40315;BME280;26021;45.640;11.302;2023-02-02T13:21:10;99018.97;;;10.78;79.29
40315;BME280;26021;45.640;11.302;2023-02-02T13:23:46;99002.28;;;10.68;79.94
40315;BME280;26021;45.640;11.302;2023-02-02T13:26:18;98984.19;;;10.15;81.81
40315;BME280;26021;45.640;11.302;2023-02-02T13:28:52;99022.94;;;10.27;81.95
40315;BME280;26021;45.640;11.302;2023-02-02T13:31:48;99019.91;;;10.46;82.71
40315;BME280;26021;45.640;11.302;2023-02-02T13:37:11;99016.38;;;10.54;82.26
40315;BME280;26021;45.640;11.302;2023-02-02T13:39:43;99009.44;;;10.76;81.61
40315;BME280;26021;45.640;11.302;2023-02-02T13:42:30;99011.91;;;10.46;81.39
40315;BME280;26021;45.640;11.302;2023-02-02T13:45:01;98989.69;;;10.46;82.15
40315;BME280;26021;45.640;11.302;2023-02-02T13:47:38;99006.66;;;10.61;82.61
40315;BME280;26021;45.640;11.302;2023-02-02T13:50:13;99006.38;;;10.40;82.90
40315;BME280;26021;45.640;11.302;2023-02-02T14:00:50;99017.06;;;10.48;84.27
40315;BME280;26021;45.640;11.302;2023-02-02T14:03:37;99022.59;;;10.46;83.74
40315;BME280;26021;45.640;11.302;2023-02-02T14:06:13;99024.28;;;10.31;86.05
40315;BME280;26021;45.640;11.302;2023-02-02T14:08:55;99024.13;;;10.25;85.73
40315;BME280;26021;45.640;11.302;2023-02-02T14:11:33;99029.47;;;10.16;87.11
40315;BME280;26021;45.640;11.302;2023-02-02T14:14:08;99008.25;;;10.15;84.02
40315;BME280;26021;45.640;11.302;2023-02-02T14:16:53;99025.63;;;10.11;86.39
40315;BME280;26021;45.640;11.302;2023-02-02T14:26:58;99027.31;;;9.96;87.01
40315;BME280;26021;45.640;11.302;2023-02-02T14:45:38;99034.50;;;9.71;91.77
40315;BME280;26021;45.640;11.302;2023-02-02T14:48:19;99009.94;;;9.51;91.87
40315;BME280;26021;45.640;11.302;2023-02-02T14:53:27;99061.81;;;9.40;94.46
40315;BME280;26021;45.640;11.302;2023-02-02T14:56:06;99066.16;;;9.41;94.70
40315;BME280;26021;45.640;11.302;2023-02-02T14:58:45;99058.75;;;9.11;95.97
40315;BME280;26021;45.640;11.302;2023-02-02T15:03:56;99071.88;;;8.96;98.69
40315;BME280;26021;45.640;11.302;2023-02-02T15:06:41;99062.31;;;8.85;100.00
40315;BME280;26021;45.640;11.302;2023-02-02T15:17:15;99087.78;;;8.46;100.00
40315;BME280;26021;45.640;11.302;2023-02-02T15:19:49;99053.75;;;7.96;100.00
40315;BME280;26021;45.640;11.302;2023-02-02T15:24:53;99092.88;;;7.95;100.00
40315;BME280;26021;45.640;11.302;2023-02-02T15:27:19;99093.41;;;7.63;100.00
40315;BME280;26021;45.640;11.302;2023-02-02T15:29:51;99091.38;;;7.57;100.00
40315;BME280;26021;45.640;11.302;2023-02-02T15:32:21;99088.38;;;7.96;100.00
40315;BME280;26021;45.640;11.302;2023-02-02T15:34:52;99092.66;;;7.71;100.00